Time;durP1;ratioP1;P1;durP2;ratioP2;P2;SDS_P1;SDS_P2;PMS_P1;PMS_P2;Temp;Humidity;BMP_temperature;BMP_pressure;BME280_temperature;BME280_humidity;BME280_pressure;Samples;Min_cycle;Max_cycle;Signal;HPM_P1;HPM_P2
2024/02/22 00:00:47;;;;;;;2.38;2.15;;;10.00;89.20;;;;;;9180296;19;20143;-69
2024/02/22 00:03:57;;;;;;;2.10;1.75;;;10.10;89.50;;;;;;9181302;19;20119;-72
2024/02/22 00:07:03;;;;;;;3.67;2.15;;;10.20;89.60;;;;;;9176443;19;20010;-72
2024/02/22 00:10:12;;;;;;;2.58;2.00;;;10.20;89.50;;;;;;9180392;19;20019;-70
2024/02/22 00:13:17;;;;;;;2.38;1.85;;;10.10;89.50;;;;;;9180440;19;20010;-70
2024/02/22 00:16:25;;;;;;;2.70;1.95;;;10.10;89.60;;;;;;9180470;19;20481;-70
2024/02/22 00:19:33;;;;;;;2.00;1.80;;;10.20;89.70;;;;;;9180341;19;20018;-70
2024/02/22 00:22:40;;;;;;;7.13;1.88;;;10.20;90.10;;;;;;9177474;19;20022;-70
2024/02/22 00:25:46;;;;;;;2.67;2.03;;;10.20;89.50;;;;;;9180361;19;20010;-70
2024/02/22 00:28:54;;;;;;;2.53;2.08;;;10.20;89.80;;;;;;9179646;19;20018;-70
2024/02/22 00:31:59;;;;;;;2.17;1.70;;;10.20;89.90;;;;;;9176858;19;20014;-70
2024/02/22 00:35:10;;;;;;;2.70;2.22;;;10.20;90.00;;;;;;9180173;19;20018;-70
2024/02/22 00:38:16;;;;;;;2.35;1.92;;;10.20;89.80;;;;;;9179719;19;20021;-70
2024/02/22 00:41:23;;;;;;;2.65;2.13;;;10.30;89.80;;;;;;9178176;19;20014;-70
2024/02/22 00:44:29;;;;;;;3.00;2.20;;;10.30;89.90;;;;;;9176258;19;20026;-70
2024/02/22 00:47:37;;;;;;;2.22;1.80;;;10.30;89.90;;;;;;9178956;19;20092;-70
2024/02/22 00:50:45;;;;;;;2.30;2.10;;;10.30;90.00;;;;;;9178600;19;20011;-71
2024/02/22 00:53:53;;;;;;;2.25;1.80;;;10.30;90.00;;;;;;9177735;19;20006;-70
2024/02/22 00:56:58;;;;;;;3.45;1.85;;;10.30;89.80;;;;;;9179680;19;20018;-70
2024/02/22 01:00:11;;;;;;;2.00;1.80;;;10.40;89.80;;;;;;9178821;19;20668;-70
2024/02/22 01:03:16;;;;;;;1.92;1.65;;;10.30;89.70;;;;;;9175478;19;20690;-71
2024/02/22 01:06:27;;;;;;;1.70;1.45;;;10.30;89.70;;;;;;9174736;19;20011;-70
2024/02/22 01:09:32;;;;;;;2.40;1.77;;;10.60;90.10;;;;;;9176076;19;20014;-70
2024/02/22 01:12:40;;;;;;;2.80;1.60;;;10.40;90.00;;;;;;9178582;19;20026;-71
2024/02/22 01:15:45;;;;;;;1.95;1.60;;;10.40;90.00;;;;;;9177785;19;20021;-70
2024/02/22 01:18:53;;;;;;;1.95;1.50;;;10.40;90.10;;;;;;9176803;19;20023;-70
2024/02/22 01:22:02;;;;;;;1.90;1.70;;;10.50;90.00;;;;;;9176731;19;20015;-71
2024/02/22 01:25:11;;;;;;;1.92;1.65;;;10.50;90.40;;;;;;9178066;19;20022;-70
2024/02/22 01:28:17;;;;;;;1.95;1.80;;;10.40;90.10;;;;;;9177556;19;20014;-70
2024/02/22 01:31:24;;;;;;;1.52;1.42;;;10.50;90.10;;;;;;9176830;19;20014;-70
2024/02/22 01:34:30;;;;;;;2.10;1.90;;;10.50;90.20;;;;;;9176527;19;20018;-70
2024/02/22 01:37:40;;;;;;;1.92;1.77;;;10.50;90.20;;;;;;9176948;19;20022;-71
2024/02/22 01:40:46;;;;;;;1.75;1.65;;;10.50;90.20;;;;;;9175402;19;20018;-70
2024/02/22 01:43:53;;;;;;;1.95;1.75;;;10.50;90.20;;;;;;9176377;19;20026;-70
2024/02/22 01:47:00;;;;;;;3.60;2.10;;;10.60;90.10;;;;;;9176867;19;20047;-71
2024/02/22 01:50:10;;;;;;;1.98;1.77;;;10.60;90.10;;;;;;9177673;19;20018;-72
2024/02/22 01:53:19;;;;;;;2.38;2.10;;;10.60;90.20;;;;;;9176461;19;20018;-71
2024/02/22 01:56:27;;;;;;;1.80;1.70;;;10.60;90.10;;;;;;9176222;19;20033;-70
2024/02/22 01:59:34;;;;;;;1.95;1.85;;;10.60;90.30;;;;;;9176675;19;20021;-71
2024/02/22 02:02:42;;;;;;;4.05;1.85;;;10.60;90.20;;;;;;9174750;19;20030;-71
2024/02/22 02:05:55;;;;;;;2.20;2.05;;;10.70;90.70;;;;;;9172170;19;20017;-70
2024/02/22 02:09:06;;;;;;;2.47;2.28;;;10.60;90.20;;;;;;9171934;19;20014;-71
2024/02/22 02:12:12;;;;;;;2.30;2.10;;;10.70;90.10;;;;;;9176387;19;20015;-71
2024/02/22 02:15:20;;;;;;;2.35;2.05;;;10.70;90.20;;;;;;9173851;19;20368;-69
2024/02/22 02:18:25;;;;;;;2.45;2.25;;;10.70;90.30;;;;;;9175950;19;20017;-69
2024/02/22 02:21:41;;;;;;;2.70;2.50;;;10.70;90.40;;;;;;9175453;19;20349;-71
2024/02/22 02:24:59;;;;;;;4.57;2.60;;;10.70;90.20;;;;;;9175567;19;20064;-71
2024/02/22 02:28:07;;;;;;;3.13;2.33;;;10.70;90.30;;;;;;9175413;19;20484;-70
2024/02/22 02:31:12;;;;;;;2.67;2.47;;;10.70;90.30;;;;;;9175821;19;20428;-71
2024/02/22 02:34:20;;;;;;;2.88;2.60;;;10.70;90.20;;;;;;9174972;19;20586;-72
2024/02/22 02:37:25;;;;;;;2.90;2.58;;;10.80;90.30;;;;;;9172779;19;20334;-70
2024/02/22 02:40:35;;;;;;;2.63;2.42;;;10.80;90.20;;;;;;9175076;19;20026;-71
2024/02/22 02:43:41;;;;;;;2.90;2.70;;;10.80;90.40;;;;;;9173231;19;20011;-71
2024/02/22 02:46:48;;;;;;;3.13;2.78;;;10.80;90.30;;;;;;9173726;19;20774;-72
2024/02/22 02:49:54;;;;;;;2.70;2.50;;;10.80;90.40;;;;;;9174376;19;20444;-71
2024/02/22 02:53:01;;;;;;;3.20;2.90;;;10.80;90.30;;;;;;9175459;19;20623;-71
2024/02/22 02:56:10;;;;;;;3.25;2.70;;;10.90;90.40;;;;;;9183729;19;20010;-71
2024/02/22 02:59:18;;;;;;;2.97;2.63;;;10.90;90.40;;;;;;9183301;19;20078;-72
2024/02/22 03:02:24;;;;;;;3.67;2.90;;;10.90;90.50;;;;;;9182531;19;20731;-73
2024/02/22 03:05:32;;;;;;;3.20;2.75;;;10.90;90.40;;;;;;9183680;19;20086;-70
2024/02/22 03:08:38;;;;;;;3.55;3.20;;;10.90;90.40;;;;;;9176347;19;20022;-70
2024/02/22 03:11:48;;;;;;;3.20;2.90;;;10.90;90.60;;;;;;9183104;19;20107;-70
2024/02/22 03:14:53;;;;;;;3.38;2.70;;;11.00;90.60;;;;;;9182466;19;20006;-71
2024/02/22 03:18:01;;;;;;;5.68;3.00;;;10.90;90.40;;;;;;9182093;19;20022;-71
2024/02/22 03:21:07;;;;;;;4.40;3.03;;;10.90;90.50;;;;;;9183287;19;20033;-71
2024/02/22 03:24:15;;;;;;;4.05;3.30;;;10.90;90.40;;;;;;9180277;19;20018;-71
2024/02/22 03:27:23;;;;;;;5.20;3.60;;;11.00;90.40;;;;;;9182508;19;20014;-71
2024/02/22 03:30:33;;;;;;;4.53;3.50;;;11.00;90.50;;;;;;9182891;19;20029;-71
2024/02/22 03:33:41;;;;;;;4.00;3.60;;;11.00;90.50;;;;;;9179122;19;20379;-71
2024/02/22 03:36:48;;;;;;;4.25;3.45;;;11.00;90.40;;;;;;9182209;19;20030;-71
2024/02/22 03:39:54;;;;;;;4.93;3.83;;;11.10;90.50;;;;;;9181377;19;20021;-71
2024/02/22 03:43:04;;;;;;;8.43;3.55;;;11.10;90.50;;;;;;9182124;19;20050;-71
2024/02/22 03:46:10;;;;;;;5.18;3.58;;;11.00;90.50;;;;;;9181589;19;20029;-72
2024/02/22 03:49:18;;;;;;;6.35;4.65;;;11.00;90.60;;;;;;9182201;19;20025;-70
2024/02/22 03:52:23;;;;;;;4.05;3.55;;;11.20;90.60;;;;;;9182596;19;20595;-71
2024/02/22 03:55:33;;;;;;;5.18;3.95;;;11.10;90.70;;;;;;9181242;19;20014;-70
2024/02/22 03:58:41;;;;;;;5.07;4.10;;;11.10;90.60;;;;;;9180347;19;20040;-72
2024/02/22 04:01:48;;;;;;;6.95;4.40;;;11.20;90.80;;;;;;9180787;19;20021;-71
2024/02/22 04:04:56;;;;;;;5.45;4.63;;;11.10;90.60;;;;;;9178523;19;20014;-71
2024/02/22 04:08:03;;;;;;;6.60;4.88;;;11.20;90.70;;;;;;9175409;19;20019;-72
2024/02/22 04:11:09;;;;;;;6.38;4.75;;;11.20;90.90;;;;;;9180184;19;20018;-71
2024/02/22 04:14:19;;;;;;;6.85;4.90;;;11.20;90.80;;;;;;9180350;19;20014;-70
2024/02/22 04:17:25;;;;;;;8.63;6.47;;;11.30;90.80;;;;;;9180043;19;20518;-70
2024/02/22 04:20:32;;;;;;;8.88;5.60;;;11.20;90.70;;;;;;9180121;19;20018;-72
2024/02/22 04:23:38;;;;;;;8.27;5.57;;;11.30;90.80;;;;;;9178982;19;20014;-70
2024/02/22 04:26:50;;;;;;;8.13;5.82;;;11.40;90.70;;;;;;9181913;19;20014;-71
2024/02/22 04:29:58;;;;;;;9.63;5.85;;;11.30;90.60;;;;;;9177741;19;20022;-73
2024/02/22 04:33:07;;;;;;;10.38;5.50;;;11.30;90.70;;;;;;9178933;19;20046;-71
2024/02/22 04:36:14;;;;;;;10.68;6.40;;;11.30;90.70;;;;;;9179203;19;20369;-71
2024/02/22 04:39:21;;;;;;;12.38;6.53;;;11.30;90.70;;;;;;9178424;19;20013;-71
2024/02/22 04:42:27;;;;;;;12.10;6.85;;;11.40;90.90;;;;;;9174408;19;20500;-71
2024/02/22 04:45:37;;;;;;;14.00;7.45;;;11.40;90.90;;;;;;9173521;19;20017;-71
2024/02/22 04:48:43;;;;;;;15.25;7.43;;;11.40;90.90;;;;;;9174798;19;20031;-72
2024/02/22 04:51:51;;;;;;;13.63;8.45;;;11.40;90.90;;;;;;9172662;19;20014;-71
2024/02/22 04:54:59;;;;;;;15.55;8.20;;;11.50;90.90;;;;;;9174402;19;20027;-70
2024/02/22 04:58:07;;;;;;;15.85;9.35;;;11.40;91.10;;;;;;9175139;19;20011;-70
2024/02/22 05:01:15;;;;;;;15.85;9.85;;;11.40;90.80;;;;;;9178309;19;20022;-70
2024/02/22 05:04:22;;;;;;;16.90;9.15;;;11.40;90.70;;;;;;9176532;19;20583;-70
2024/02/22 05:07:28;;;;;;;25.88;9.63;;;11.40;90.80;;;;;;9173256;19;20497;-70
2024/02/22 05:10:36;;;;;;;19.92;9.73;;;11.50;91.20;;;;;;9179081;19;20014;-70
2024/02/22 05:13:43;;;;;;;18.55;10.27;;;11.40;90.70;;;;;;9178199;19;20388;-70
2024/02/22 05:16:53;;;;;;;22.88;10.68;;;11.40;90.90;;;;;;9176396;19;20030;-70
2024/02/22 05:19:59;;;;;;;23.30;10.32;;;11.60;90.90;;;;;;9177696;19;20003;-70
2024/02/22 05:23:08;;;;;;;24.13;10.20;;;11.50;90.70;;;;;;9177592;19;20015;-70
2024/02/22 05:26:14;;;;;;;24.80;11.23;;;11.50;90.90;;;;;;9176140;19;20042;-70
2024/02/22 05:29:22;;;;;;;26.13;11.35;;;11.50;90.80;;;;;;9176273;19;20033;-70
2024/02/22 05:32:30;;;;;;;23.58;11.02;;;11.40;90.70;;;;;;9176663;19;20115;-70
2024/02/22 05:35:39;;;;;;;25.58;11.65;;;11.50;90.90;;;;;;9177776;19;20025;-70
2024/02/22 05:38:44;;;;;;;31.55;12.00;;;11.50;90.80;;;;;;9177418;19;20042;-71
2024/02/22 05:41:52;;;;;;;22.42;10.73;;;11.50;90.90;;;;;;9176726;19;20886;-70
2024/02/22 05:44:57;;;;;;;25.45;11.15;;;11.50;90.90;;;;;;9174092;19;20014;-70
2024/02/22 05:48:09;;;;;;;28.38;10.98;;;11.50;90.70;;;;;;9175258;19;20022;-70
2024/02/22 05:51:15;;;;;;;30.90;10.90;;;11.50;90.70;;;;;;9177319;19;20018;-70
2024/02/22 05:54:22;;;;;;;23.50;11.30;;;11.60;90.80;;;;;;9176193;19;20025;-70
2024/02/22 05:57:28;;;;;;;23.73;11.05;;;11.60;90.70;;;;;;9176826;19;20021;-70
2024/02/22 06:00:36;;;;;;;21.10;10.43;;;11.60;90.90;;;;;;9176691;19;20029;-70
2024/02/22 06:04:01;;;;;;;25.17;11.68;;;11.60;90.80;;;;;;9174981;19;20081;-70
2024/02/22 06:07:09;;;;;;;23.90;11.43;;;11.60;90.80;;;;;;9171557;19;20659;-72
2024/02/22 06:10:15;;;;;;;21.38;10.88;;;11.60;90.80;;;;;;9176179;19;20115;-71
2024/02/22 06:13:22;;;;;;;29.10;12.20;;;11.60;90.80;;;;;;9174618;19;20014;-70
2024/02/22 06:16:28;;;;;;;26.95;12.43;;;11.70;90.80;;;;;;9174746;19;20022;-70
2024/02/22 06:19:39;;;;;;;27.83;12.70;;;11.60;90.70;;;;;;9175470;19;20022;-71
2024/02/22 06:22:45;;;;;;;33.40;12.00;;;11.60;90.70;;;;;;9173287;19;20018;-71
2024/02/22 06:25:54;;;;;;;33.50;11.27;;;11.70;90.90;;;;;;9173679;19;20847;-70
2024/02/22 06:29:00;;;;;;;29.38;12.25;;;11.60;90.70;;;;;;9172736;19;20026;-69
2024/02/22 06:32:08;;;;;;;25.83;12.27;;;11.60;90.80;;;;;;9175077;19;20022;-71
2024/02/22 06:35:17;;;;;;;36.50;12.82;;;11.50;90.70;;;;;;9174798;19;20464;-72
2024/02/22 06:38:25;;;;;;;26.45;10.95;;;11.60;90.80;;;;;;9175283;19;20026;-70
2024/02/22 06:41:30;;;;;;;24.40;10.82;;;11.60;90.70;;;;;;9175112;19;20052;-72
2024/02/22 06:44:38;;;;;;;33.08;13.10;;;11.60;90.70;;;;;;9174645;19;20015;-70
2024/02/22 06:47:44;;;;;;;25.85;11.45;;;11.50;90.70;;;;;;9174767;19;20022;-70
2024/02/22 06:50:54;;;;;;;29.30;11.07;;;11.60;90.80;;;;;;9175233;19;20018;-70
2024/02/22 06:54:00;;;;;;;23.15;10.52;;;11.60;90.90;;;;;;9175153;19;20049;-71
2024/02/22 06:57:08;;;;;;;23.27;9.60;;;11.60;90.80;;;;;;9174232;19;20014;-71
2024/02/22 07:00:15;;;;;;;26.08;10.80;;;11.70;91.00;;;;;;9173643;19;20021;-71
2024/02/22 07:03:22;;;;;;;28.08;10.70;;;11.50;90.80;;;;;;9174320;19;20046;-70
2024/02/22 07:06:31;;;;;;;24.45;10.43;;;11.60;90.80;;;;;;9166755;19;20015;-71
2024/02/22 07:09:38;;;;;;;28.50;10.85;;;11.50;90.90;;;;;;9171084;19;20014;-71
2024/02/22 07:12:45;;;;;;;26.00;10.75;;;11.60;90.80;;;;;;9171609;19;20022;-71
2024/02/22 07:15:53;;;;;;;27.48;9.63;;;11.60;90.80;;;;;;9173542;19;20023;-71
2024/02/22 07:18:58;;;;;;;34.67;10.65;;;11.50;90.80;;;;;;9170828;19;20025;-71
2024/02/22 07:22:08;;;;;;;29.27;10.25;;;11.50;90.80;;;;;;9174092;19;20029;-71
2024/02/22 07:25:16;;;;;;;23.60;9.57;;;11.50;90.80;;;;;;9166800;19;20843;-72
2024/02/22 07:28:25;;;;;;;20.02;10.15;;;11.60;90.80;;;;;;9168658;19;20668;-71
2024/02/22 07:31:30;;;;;;;27.27;10.48;;;11.60;90.80;;;;;;9171754;19;20026;-70
2024/02/22 07:34:40;;;;;;;20.67;9.10;;;11.50;90.70;;;;;;9171936;19;20082;-71
2024/02/22 07:37:49;;;;;;;30.30;10.00;;;11.50;90.70;;;;;;9169618;19;20019;-71
2024/02/22 07:40:57;;;;;;;31.48;9.15;;;11.50;90.70;;;;;;9177213;19;20349;-72
2024/02/22 07:44:03;;;;;;;19.00;7.88;;;11.50;90.70;;;;;;9176754;19;20052;-70
2024/02/22 07:47:15;;;;;;;30.73;9.93;;;11.50;90.70;;;;;;9180328;19;20015;-70
2024/02/22 07:50:21;;;;;;;25.25;8.27;;;11.60;90.70;;;;;;9181029;19;20020;-71
2024/02/22 07:53:34;;;;;;;24.85;8.40;;;11.60;90.70;;;;;;9179977;19;20019;-71
2024/02/22 07:56:41;;;;;;;28.90;8.40;;;11.50;90.60;;;;;;9180716;19;20472;-70
2024/02/22 07:59:55;;;;;;;17.13;7.55;;;11.50;90.70;;;;;;9176527;19;20025;-71
2024/02/22 08:03:01;;;;;;;27.10;8.63;;;11.50;90.80;;;;;;9179009;19;20039;-71
2024/02/22 08:06:09;;;;;;;18.73;7.68;;;11.60;90.70;;;;;;9167304;19;20500;-71
2024/02/22 08:09:17;;;;;;;24.98;8.15;;;11.50;90.80;;;;;;9171624;19;20025;-71
2024/02/22 08:12:25;;;;;;;23.05;7.95;;;11.60;90.80;;;;;;9178553;19;20018;-70
2024/02/22 08:15:30;;;;;;;27.80;9.48;;;11.60;90.70;;;;;;9177649;19;20492;-69
2024/02/22 08:18:39;;;;;;;27.45;9.07;;;11.50;90.80;;;;;;9179794;19;20018;-72
2024/02/22 08:21:44;;;;;;;30.88;8.82;;;11.60;90.70;;;;;;9179765;19;20405;-71
2024/02/22 08:24:54;;;;;;;30.02;9.07;;;11.60;90.80;;;;;;9178328;19;20021;-72
2024/02/22 08:28:00;;;;;;;26.25;8.52;;;11.60;90.80;;;;;;9177974;19;20021;-70
2024/02/22 08:31:14;;;;;;;21.33;8.98;;;11.60;90.70;;;;;;9179541;19;20022;-72
2024/02/22 08:34:20;;;;;;;38.38;10.13;;;11.60;90.70;;;;;;9176643;19;20038;-72
2024/02/22 08:37:28;;;;;;;27.55;9.75;;;11.60;90.70;;;;;;9178859;19;20022;-72
2024/02/22 08:40:37;;;;;;;21.98;9.88;;;11.60;90.70;;;;;;9178897;19;20068;-74
2024/02/22 08:43:46;;;;;;;37.97;10.02;;;11.60;91.00;;;;;;9176983;19;20034;-70
2024/02/22 08:46:52;;;;;;;27.02;11.45;;;11.70;90.90;;;;;;9175110;19;20017;-71
2024/02/22 08:50:00;;;;;;;24.63;9.48;;;11.70;90.80;;;;;;9177621;19;20022;-71
2024/02/22 08:53:06;;;;;;;26.90;9.70;;;11.70;91.00;;;;;;9174636;19;20014;-71
2024/02/22 08:56:17;;;;;;;20.92;9.38;;;11.70;90.70;;;;;;9174660;19;20370;-71
2024/02/22 08:59:22;;;;;;;21.60;9.90;;;11.70;90.80;;;;;;9168563;19;20519;-71
2024/02/22 09:02:30;;;;;;;22.95;9.13;;;11.80;90.80;;;;;;9177596;19;20021;-71
2024/02/22 09:05:36;;;;;;;22.42;9.70;;;11.80;90.80;;;;;;9177783;19;20085;-70
2024/02/22 09:08:44;;;;;;;24.15;9.52;;;11.70;90.80;;;;;;9176235;19;20030;-70
2024/02/22 09:11:52;;;;;;;23.48;9.52;;;11.90;90.80;;;;;;9178888;19;20531;-71
2024/02/22 09:15:00;;;;;;;22.65;8.52;;;11.80;90.70;;;;;;9175093;19;20484;-71
2024/02/22 09:18:06;;;;;;;28.95;10.60;;;11.90;90.80;;;;;;9175933;19;20050;-71
2024/02/22 09:21:14;;;;;;;26.13;10.27;;;11.80;90.80;;;;;;9177581;19;20009;-70
2024/02/22 09:24:19;;;;;;;21.50;10.25;;;11.90;90.90;;;;;;9175093;19;20428;-71
2024/02/22 09:27:30;;;;;;;23.55;9.48;;;11.90;90.80;;;;;;9171544;19;20014;-71
2024/02/22 09:30:35;;;;;;;17.95;8.95;;;11.90;91.00;;;;;;9177280;19;20033;-72
2024/02/22 09:33:43;;;;;;;19.75;8.75;;;11.90;90.90;;;;;;9173500;19;20017;-70
2024/02/22 09:36:49;;;;;;;23.60;9.57;;;12.00;90.90;;;;;;9172135;19;20014;-71
2024/02/22 09:39:56;;;;;;;16.85;7.82;;;12.10;91.10;;;;;;9175751;19;20010;-70
2024/02/22 09:43:05;;;;;;;16.00;7.22;;;12.10;90.80;;;;;;9173551;19;20064;-71
2024/02/22 09:46:14;;;;;;;19.42;7.85;;;12.00;90.80;;;;;;9174529;19;20049;-71
2024/02/22 09:49:19;;;;;;;16.77;6.55;;;12.10;90.80;;;;;;9178322;19;20026;-70
2024/02/22 09:52:27;;;;;;;22.45;7.55;;;12.10;90.80;;;;;;9178862;19;20014;-70
2024/02/22 09:55:33;;;;;;;13.50;7.13;;;12.20;90.80;;;;;;9172394;19;20021;-70
2024/02/22 09:58:44;;;;;;;12.95;7.20;;;12.20;90.70;;;;;;9167287;19;20485;-70
2024/02/22 10:01:50;;;;;;;13.82;6.07;;;12.20;90.80;;;;;;9171156;19;20022;-71
2024/02/22 10:05:00;;;;;;;15.18;6.13;;;12.20;90.70;;;;;;9174770;19;20488;-71
2024/02/22 10:08:14;;;;;;;13.38;5.50;;;12.30;90.70;;;;;;9171476;19;20060;-70
2024/02/22 10:11:22;;;;;;;10.98;5.35;;;12.30;90.80;;;;;;9173530;19;20474;-70
2024/02/22 10:14:37;;;;;;;13.55;4.45;;;12.30;90.60;;;;;;9174126;19;20029;-71
2024/02/22 10:17:45;;;;;;;8.80;4.10;;;12.40;90.70;;;;;;9175142;19;20045;-71
2024/02/22 10:20:50;;;;;;;9.48;3.88;;;12.40;90.80;;;;;;9175845;19;20021;-70
2024/02/22 10:23:59;;;;;;;4.55;3.92;;;12.50;90.70;;;;;;9175907;19;20480;-71
2024/02/22 10:27:05;;;;;;;11.30;4.60;;;12.50;90.70;;;;;;9171716;19;20015;-70
2024/02/22 10:30:18;;;;;;;5.60;3.35;;;12.60;90.90;;;;;;9173578;19;20019;-71
2024/02/22 10:33:25;;;;;;;4.85;3.05;;;12.60;90.80;;;;;;9172853;19;20018;-70
2024/02/22 10:36:33;;;;;;;4.32;3.17;;;12.60;90.60;;;;;;9173041;19;20015;-72
2024/02/22 10:39:41;;;;;;;3.72;2.97;;;12.70;90.60;;;;;;9174154;19;20011;-71
2024/02/22 10:42:52;;;;;;;3.47;3.17;;;12.80;90.70;;;;;;9174658;19;20030;-73
2024/02/22 10:46:04;;;;;;;6.90;4.53;;;12.80;90.60;;;;;;9172738;19;20014;-74
2024/02/22 10:49:13;;;;;;;5.18;3.67;;;12.90;90.70;;;;;;9171141;19;20010;-71
2024/02/22 10:52:19;;;;;;;4.60;4.10;;;12.80;90.60;;;;;;9169458;19;20023;-72
2024/02/22 10:55:29;;;;;;;4.95;4.45;;;12.90;90.70;;;;;;9171287;19;20006;-71
2024/02/22 10:58:38;;;;;;;4.40;4.00;;;12.90;90.50;;;;;;9168179;19;20117;-72
2024/02/22 11:01:50;;;;;;;5.20;3.65;;;13.00;90.60;;;;;;9174384;19;20014;-71
2024/02/22 11:05:02;;;;;;;5.80;4.13;;;12.90;90.60;;;;;;9171900;19;20018;-72
2024/02/22 11:08:20;;;;;;;4.82;3.92;;;13.00;90.30;;;;;;9172103;19;20018;-73
2024/02/22 11:11:30;;;;;;;7.05;4.55;;;13.00;90.40;;;;;;9173555;19;20014;-73
2024/02/22 11:14:40;;;;;;;7.95;4.53;;;13.00;90.40;;;;;;9175716;19;20018;-70
2024/02/22 11:17:58;;;;;;;4.95;4.03;;;13.00;90.30;;;;;;9183746;19;20006;-73
2024/02/22 11:21:13;;;;;;;4.40;4.00;;;13.10;90.40;;;;;;9182707;19;20021;-70
2024/02/22 11:24:24;;;;;;;5.18;4.68;;;13.00;90.30;;;;;;9181559;19;20027;-72
2024/02/22 11:27:31;;;;;;;8.63;5.10;;;13.00;90.30;;;;;;9180156;19;20373;-71
2024/02/22 11:30:37;;;;;;;6.75;4.75;;;13.00;90.30;;;;;;9178164;19;20410;-72
2024/02/22 11:33:48;;;;;;;10.70;5.82;;;13.10;90.30;;;;;;9179380;19;20014;-72
2024/02/22 11:36:54;;;;;;;6.00;5.03;;;13.10;90.30;;;;;;9180718;19;20014;-71
2024/02/22 11:40:04;;;;;;;9.93;6.25;;;13.10;90.30;;;;;;9178726;19;20409;-72
2024/02/22 11:43:09;;;;;;;10.38;6.45;;;13.10;90.30;;;;;;9179645;19;20022;-73
2024/02/22 11:46:17;;;;;;;7.80;6.57;;;13.10;90.20;;;;;;9181137;19;20033;-73
2024/02/22 11:49:26;;;;;;;10.23;7.93;;;13.10;90.20;;;;;;9176513;19;20011;-74
2024/02/22 11:52:34;;;;;;;9.02;7.43;;;13.10;90.20;;;;;;9179354;19;20484;-71
2024/02/22 11:55:40;;;;;;;16.77;8.68;;;13.10;90.40;;;;;;9179721;19;20906;-70
2024/02/22 11:58:48;;;;;;;10.25;7.93;;;13.10;90.30;;;;;;9176211;19;20018;-70
2024/02/22 12:01:53;;;;;;;13.43;9.10;;;13.10;90.20;;;;;;9175708;19;20025;-71
2024/02/22 12:05:04;;;;;;;10.18;8.63;;;13.10;90.10;;;;;;9178540;19;20007;-70
2024/02/22 12:08:11;;;;;;;13.27;8.98;;;13.00;90.10;;;;;;9177355;19;20404;-69
2024/02/22 12:11:19;;;;;;;9.45;7.70;;;13.10;90.20;;;;;;9176998;19;20029;-70
2024/02/22 12:14:25;;;;;;;11.20;8.00;;;13.10;90.20;;;;;;9178725;19;20018;-70
2024/02/22 12:17:34;;;;;;;11.93;7.97;;;13.20;90.30;;;;;;9180501;19;20023;-69
2024/02/22 12:20:44;;;;;;;12.32;6.50;;;13.00;90.10;;;;;;9180736;19;20016;-71
2024/02/22 12:23:51;;;;;;;9.27;6.95;;;13.00;90.20;;;;;;9180182;19;20029;-70
2024/02/22 12:26:57;;;;;;;10.25;6.05;;;12.90;90.10;;;;;;9175055;19;20030;-70
2024/02/22 12:30:05;;;;;;;11.45;5.75;;;12.90;90.20;;;;;;9178147;19;20019;-70
2024/02/22 12:33:21;;;;;;;6.57;4.82;;;12.90;90.20;;;;;;9178148;19;20007;-70
2024/02/22 12:36:32;;;;;;;5.03;4.43;;;12.90;90.20;;;;;;9177501;19;20022;-70
2024/02/22 12:39:39;;;;;;;5.13;4.63;;;12.90;90.20;;;;;;9178951;19;20057;-70
2024/02/22 12:42:54;;;;;;;5.53;4.13;;;12.90;90.30;;;;;;9175924;19;20014;-70
2024/02/22 12:46:00;;;;;;;7.17;5.30;;;12.90;90.20;;;;;;9177466;19;20090;-70
2024/02/22 12:49:07;;;;;;;5.07;4.25;;;12.90;90.20;;;;;;9175092;19;20022;-70
2024/02/22 12:52:16;;;;;;;4.60;3.95;;;12.80;90.20;;;;;;9176403;19;20483;-70
2024/02/22 12:55:24;;;;;;;7.93;4.20;;;12.90;90.20;;;;;;9179473;19;20018;-70
2024/02/22 12:58:29;;;;;;;4.35;3.92;;;12.90;90.20;;;;;;9175366;19;20037;-70
2024/02/22 13:01:38;;;;;;;6.65;3.90;;;12.90;90.20;;;;;;9179041;19;20030;-70
2024/02/22 13:04:43;;;;;;;5.28;3.95;;;12.90;90.30;;;;;;9176923;19;20480;-70
2024/02/22 13:07:54;;;;;;;6.50;3.60;;;12.80;90.30;;;;;;9171477;19;20026;-70
2024/02/22 13:10:59;;;;;;;8.93;3.60;;;12.90;90.30;;;;;;9176387;19;20022;-70
2024/02/22 13:14:07;;;;;;;4.03;3.35;;;12.90;90.30;;;;;;9175854;19;20582;-70
2024/02/22 13:17:13;;;;;;;3.92;3.17;;;12.90;90.30;;;;;;9175498;19;20017;-70
2024/02/22 13:20:20;;;;;;;5.55;2.95;;;12.90;90.40;;;;;;9176607;19;20054;-70
2024/02/22 13:23:28;;;;;;;4.82;3.20;;;13.00;90.40;;;;;;9177260;19;20082;-70
2024/02/22 13:26:36;;;;;;;3.95;3.28;;;12.90;90.30;;;;;;9177693;19;20023;-70
2024/02/22 13:29:43;;;;;;;3.78;3.22;;;12.90;90.40;;;;;;9176392;19;20372;-70
2024/02/22 13:32:51;;;;;;;3.95;2.83;;;12.90;90.40;;;;;;9176853;19;20025;-70
2024/02/22 13:35:56;;;;;;;4.80;3.10;;;13.00;90.50;;;;;;9174209;19;20018;-70
2024/02/22 13:39:09;;;;;;;5.05;3.13;;;13.00;90.40;;;;;;9173299;19;20461;-70
2024/02/22 13:42:15;;;;;;;7.05;3.20;;;13.00;90.50;;;;;;9174016;19;20010;-70
2024/02/22 13:45:23;;;;;;;3.10;2.75;;;13.00;90.40;;;;;;9174644;19;20010;-70
2024/02/22 13:48:29;;;;;;;3.45;2.97;;;13.10;90.50;;;;;;9175646;19;20029;-70
2024/02/22 13:51:37;;;;;;;2.53;2.33;;;13.00;90.40;;;;;;9175541;19;20361;-70
2024/02/22 13:54:47;;;;;;;5.10;2.97;;;13.00;90.50;;;;;;9175089;19;20369;-70
2024/02/22 13:57:56;;;;;;;8.20;2.83;;;13.00;90.50;;;;;;9165244;19;20022;-70
2024/02/22 14:01:04;;;;;;;2.50;2.30;;;13.00;90.50;;;;;;9172771;19;20588;-70
2024/02/22 14:04:12;;;;;;;2.80;2.60;;;13.00;90.60;;;;;;9170601;19;20345;-70
2024/02/22 14:07:19;;;;;;;4.15;2.40;;;13.00;90.60;;;;;;9171326;19;20480;-70
2024/02/22 14:10:30;;;;;;;2.97;2.42;;;13.00;90.50;;;;;;9169955;19;20030;-71
2024/02/22 14:13:36;;;;;;;3.50;2.50;;;13.00;90.40;;;;;;9173898;19;20414;-71
2024/02/22 14:16:44;;;;;;;3.60;2.53;;;13.00;90.50;;;;;;9173175;19;20614;-71
2024/02/22 14:19:49;;;;;;;2.33;2.13;;;13.00;90.50;;;;;;9173595;19;20044;-71
2024/02/22 14:22:57;;;;;;;3.50;2.58;;;12.90;90.50;;;;;;9173648;19;20022;-71
2024/02/22 14:26:05;;;;;;;2.63;2.42;;;13.00;90.70;;;;;;9175018;19;20014;-71
2024/02/22 14:29:13;;;;;;;3.10;2.80;;;12.90;90.60;;;;;;9174036;19;20015;-71
2024/02/22 14:32:19;;;;;;;3.72;2.55;;;13.00;90.80;;;;;;9172008;19;20034;-73
2024/02/22 14:35:26;;;;;;;2.67;2.47;;;12.90;90.70;;;;;;9172168;19;20010;-71
2024/02/22 14:38:33;;;;;;;3.10;2.80;;;12.90;90.70;;;;;;9176563;19;20015;-72
2024/02/22 14:41:43;;;;;;;2.35;2.13;;;12.90;90.60;;;;;;9175184;19;20023;-72
2024/02/22 14:44:49;;;;;;;3.80;2.40;;;12.90;90.70;;;;;;9175259;19;20010;-72
2024/02/22 14:47:56;;;;;;;2.28;2.13;;;12.90;90.60;;;;;;9174702;19;20026;-71
2024/02/22 14:51:02;;;;;;;2.50;2.08;;;13.00;90.60;;;;;;9175399;19;20476;-71
2024/02/22 14:54:10;;;;;;;6.47;2.20;;;12.90;90.70;;;;;;9183111;19;20011;-72
2024/02/22 14:57:18;;;;;;;3.58;2.10;;;12.90;90.70;;;;;;9179403;19;20483;-71
2024/02/22 15:00:26;;;;;;;2.88;2.42;;;12.90;90.80;;;;;;9183500;19;20010;-72
2024/02/22 15:03:32;;;;;;;3.60;2.65;;;12.90;90.90;;;;;;9182621;19;20535;-72
2024/02/22 15:06:44;;;;;;;3.00;2.70;;;12.90;90.90;;;;;;9181969;19;20034;-72
2024/02/22 15:09:51;;;;;;;3.45;2.70;;;12.90;90.80;;;;;;9179390;19;20362;-72
2024/02/22 15:13:01;;;;;;;2.70;2.40;;;12.90;90.80;;;;;;9182453;19;20377;-72
2024/02/22 15:16:07;;;;;;;4.05;3.10;;;12.90;90.90;;;;;;9181950;19;20011;-72
2024/02/22 15:19:15;;;;;;;3.08;2.70;;;12.90;90.80;;;;;;9180621;19;20025;-72
2024/02/22 15:22:22;;;;;;;2.75;2.40;;;12.90;90.90;;;;;;9182011;19;20369;-72
2024/02/22 15:25:29;;;;;;;5.47;3.05;;;12.90;91.00;;;;;;9182372;19;20018;-73
2024/02/22 15:28:38;;;;;;;3.28;2.97;;;13.00;91.00;;;;;;9182961;19;20018;-73
2024/02/22 15:31:45;;;;;;;4.15;3.55;;;13.00;90.90;;;;;;9179674;19;20014;-72
2024/02/22 15:34:51;;;;;;;4.03;3.13;;;13.00;91.00;;;;;;9181523;19;20010;-71
2024/02/22 15:38:00;;;;;;;4.00;3.40;;;13.00;91.20;;;;;;9182499;19;20022;-75
2024/02/22 15:41:06;;;;;;;4.20;3.80;;;13.10;91.00;;;;;;9179046;19;20015;-72
2024/02/22 15:44:16;;;;;;;3.75;3.45;;;13.00;91.10;;;;;;9179110;19;20022;-71
2024/02/22 15:47:22;;;;;;;4.63;3.72;;;13.10;91.20;;;;;;9178869;19;20026;-72
2024/02/22 15:50:30;;;;;;;5.35;3.45;;;13.10;91.10;;;;;;9178051;19;20026;-72
2024/02/22 15:53:35;;;;;;;4.57;3.35;;;13.10;91.20;;;;;;9179530;19;20018;-71
2024/02/22 15:56:43;;;;;;;6.03;3.45;;;13.10;91.10;;;;;;9179412;19;20006;-71
2024/02/22 15:59:51;;;;;;;8.20;3.10;;;13.10;91.10;;;;;;9174958;19;20025;-71
2024/02/22 16:02:58;;;;;;;4.60;2.25;;;13.10;91.00;;;;;;9178389;19;20011;-71
2024/02/22 16:06:04;;;;;;;3.88;2.45;;;13.20;91.00;;;;;;9177759;19;20026;-71
2024/02/22 16:09:12;;;;;;;2.00;1.80;;;13.10;91.10;;;;;;9176312;19;20021;-71